| Date | Time | Temp. (oF) | Dew Point (oF) | Rel. Hum. (%) | Press. (in.) | Wind Dir. | Wind Speed (mph) | Hourly Rainfall (in.) |
|
|---|---|---|---|---|---|---|---|---|---|
| 1 | 04/26 | 00:00 | 46 | 30 | 54 | 29.68 | W | 2 | 0.00 |
| 2 | 04/25 | 23:00 | 46 | 32 | 60 | 29.70 | SSW | 7 | 0.00 |
| 3 | 04/25 | 22:00 | 47 | 29 | 51 | 29.69 | S | 0 | 0.00 |
| 4 | 04/25 | 21:00 | 49 | 26 | 41 | 29.69 | SSW | 0 | 0.00 |
| 5 | 04/25 | 20:00 | 51 | 23 | 34 | 29.69 | SSW | 3 | 0.00 |
| 6 | 04/25 | 19:00 | 52 | 25 | 35 | 29.70 | SW | 0 | 0.00 |
| 7 | 04/25 | 18:00 | 52 | 24 | 34 | 29.70 | WSW | 2 | 0.00 |
| 8 | 04/25 | 17:00 | 54 | 26 | 35 | 29.71 | WSW | 4 | 0.00 |
| 9 | 04/25 | 16:00 | 53 | 25 | 35 | 29.74 | ENE | 2 | 0.00 |
| 10 | 04/25 | 15:00 | 52 | 25 | 36 | 29.78 | WSW | 4 | 0.00 |
| 11 | 04/25 | 14:00 | 51 | 28 | 42 | 29.82 | S | 5 | 0.00 |
| 12 | 04/25 | 13:00 | 49 | 25 | 40 | 29.87 | SSW | 6 | 0.00 |
| 13 | 04/25 | 12:00 | 46 | 24 | 42 | 29.89 | NNE | 3 | 0.00 |
| 14 | 04/25 | 11:00 | 42 | 22 | 46 | 29.92 | WNW | 4 | 0.00 |
| 15 | 04/25 | 10:00 | 42 | 21 | 44 | 29.93 | NNW | 4 | 0.00 |
| 16 | 04/25 | 09:00 | 40 | 25 | 57 | 29.95 | W | 7 | 0.00 |
| 17 | 04/25 | 08:00 | 37 | 27 | 67 | 29.96 | WSW | 3 | 0.00 |
| 18 | 04/25 | 07:00 | 32 | 28 | 85 | 29.95 | N | 1 | 0.00 |
| 19 | 04/25 | 06:00 | 32 | 23 | 72 | 29.96 | S | 0 | 0.00 |
| 20 | 04/25 | 05:00 | 31 | 24 | 76 | 29.95 | N | 0 | 0.00 |
| 21 | 04/25 | 04:00 | 32 | 23 | 72 | 29.97 | SSW | 0 | 0.00 |
| 22 | 04/25 | 03:00 | 34 | 24 | 69 | 29.95 | SSW | 2 | 0.00 |
| 23 | 04/25 | 02:00 | 36 | 23 | 59 | 29.95 | SSW | 0 | 0.00 |
| 24 | 04/25 | 01:00 | 41 | 19 | 42 | 29.95 | E | 7 | 0.00 |